Terminal Aerodrome Forecast
Issued by NWS

Home | Current Version | Previous Version | Text Only | Print | Product List | Glossary On
Versions: 1 2 3 4 5 6 7 8 9 10 11 12 13 14 15 16 17 18 19 20 21 22 23
000
FTUS46 KPDT 280500
TAFYKM
TAF
KYKM 280520Z 2806/2906 20015G23KT P6SM SCT070 BKN090
     FM281500 21005KT P6SM SCT100 BKN150
     FM282100 23014G22KT P6SM SCT050 BKN100
     FM290300 27011KT P6SM SCT080=

USA.gov is the U.S. government's official web portal to all federal, state and local government web resources and services.